sensor_id;sensor_type;location;lat;lon;timestamp;P1;durP1;ratioP1;P2;durP2;ratioP2
7529;SDS011;3806;52.270;10.544;2022-08-19T00:00:23;9.63;;;5.55;;
7529;SDS011;3806;52.270;10.544;2022-08-19T00:02:49;8.27;;;5.18;;
7529;SDS011;3806;52.270;10.544;2022-08-19T00:05:14;8.82;;;5.43;;
7529;SDS011;3806;52.270;10.544;2022-08-19T00:07:41;9.27;;;5.40;;
7529;SDS011;3806;52.270;10.544;2022-08-19T00:10:08;7.75;;;5.45;;
7529;SDS011;3806;52.270;10.544;2022-08-19T00:12:36;10.18;;;5.30;;
7529;SDS011;3806;52.270;10.544;2022-08-19T00:15:04;7.03;;;5.55;;
7529;SDS011;3806;52.270;10.544;2022-08-19T00:17:31;10.07;;;5.53;;
7529;SDS011;3806;52.270;10.544;2022-08-19T00:19:56;7.03;;;5.10;;
7529;SDS011;3806;52.270;10.544;2022-08-19T00:22:22;8.73;;;5.40;;
7529;SDS011;3806;52.270;10.544;2022-08-19T00:24:48;7.53;;;4.53;;
7529;SDS011;3806;52.270;10.544;2022-08-19T00:27:13;8.90;;;5.53;;
7529;SDS011;3806;52.270;10.544;2022-08-19T00:29:39;8.15;;;5.53;;
7529;SDS011;3806;52.270;10.544;2022-08-19T00:32:05;6.45;;;4.60;;
7529;SDS011;3806;52.270;10.544;2022-08-19T00:34:31;5.55;;;4.72;;
7529;SDS011;3806;52.270;10.544;2022-08-19T00:36:57;10.65;;;5.30;;
7529;SDS011;3806;52.270;10.544;2022-08-19T00:39:24;8.18;;;5.07;;
7529;SDS011;3806;52.270;10.544;2022-08-19T00:41:51;9.38;;;4.63;;
7529;SDS011;3806;52.270;10.544;2022-08-19T00:44:18;8.55;;;5.18;;
7529;SDS011;3806;52.270;10.544;2022-08-19T00:46:47;8.73;;;5.25;;
7529;SDS011;3806;52.270;10.544;2022-08-19T00:51:42;7.18;;;4.97;;
7529;SDS011;3806;52.270;10.544;2022-08-19T00:54:10;9.98;;;5.03;;
7529;SDS011;3806;52.270;10.544;2022-08-19T00:56:36;9.18;;;4.72;;
7529;SDS011;3806;52.270;10.544;2022-08-19T00:59:02;6.18;;;4.57;;
7529;SDS011;3806;52.270;10.544;2022-08-19T01:01:35;7.15;;;4.90;;
7529;SDS011;3806;52.270;10.544;2022-08-19T01:04:05;8.98;;;5.07;;
7529;SDS011;3806;52.270;10.544;2022-08-19T01:06:31;12.23;;;5.10;;
7529;SDS011;3806;52.270;10.544;2022-08-19T01:08:58;8.93;;;4.22;;
7529;SDS011;3806;52.270;10.544;2022-08-19T01:11:25;9.20;;;5.03;;
7529;SDS011;3806;52.270;10.544;2022-08-19T01:13:53;9.32;;;5.43;;
7529;SDS011;3806;52.270;10.544;2022-08-19T01:16:19;7.35;;;5.15;;
7529;SDS011;3806;52.270;10.544;2022-08-19T01:18:48;7.45;;;4.40;;
7529;SDS011;3806;52.270;10.544;2022-08-19T01:23:45;10.68;;;5.05;;
7529;SDS011;3806;52.270;10.544;2022-08-19T01:26:15;8.10;;;4.82;;
7529;SDS011;3806;52.270;10.544;2022-08-19T01:28:46;9.45;;;4.55;;
7529;SDS011;3806;52.270;10.544;2022-08-19T01:31:16;8.20;;;5.13;;
7529;SDS011;3806;52.270;10.544;2022-08-19T01:33:47;7.07;;;4.25;;
7529;SDS011;3806;52.270;10.544;2022-08-19T01:36:16;7.32;;;4.07;;
7529;SDS011;3806;52.270;10.544;2022-08-19T01:38:51;12.77;;;5.00;;
7529;SDS011;3806;52.270;10.544;2022-08-19T01:41:16;10.23;;;4.70;;
7529;SDS011;3806;52.270;10.544;2022-08-19T01:43:43;7.47;;;4.90;;
7529;SDS011;3806;52.270;10.544;2022-08-19T01:46:09;8.27;;;4.25;;
7529;SDS011;3806;52.270;10.544;2022-08-19T01:48:37;6.25;;;5.10;;
7529;SDS011;3806;52.270;10.544;2022-08-19T01:51:05;6.43;;;4.30;;
7529;SDS011;3806;52.270;10.544;2022-08-19T01:53:32;7.03;;;4.38;;
7529;SDS011;3806;52.270;10.544;2022-08-19T01:55:58;7.85;;;5.05;;
7529;SDS011;3806;52.270;10.544;2022-08-19T01:58:27;6.25;;;4.20;;
7529;SDS011;3806;52.270;10.544;2022-08-19T02:01:02;6.43;;;4.45;;
7529;SDS011;3806;52.270;10.544;2022-08-19T02:03:28;7.38;;;4.93;;
7529;SDS011;3806;52.270;10.544;2022-08-19T02:05:58;5.75;;;4.38;;
7529;SDS011;3806;52.270;10.544;2022-08-19T02:08:26;7.97;;;4.47;;
7529;SDS011;3806;52.270;10.544;2022-08-19T02:10:52;6.15;;;4.28;;
7529;SDS011;3806;52.270;10.544;2022-08-19T02:13:18;8.40;;;4.70;;
7529;SDS011;3806;52.270;10.544;2022-08-19T02:15:44;7.50;;;4.22;;
7529;SDS011;3806;52.270;10.544;2022-08-19T02:18:10;7.15;;;3.80;;
7529;SDS011;3806;52.270;10.544;2022-08-19T02:20:36;6.10;;;4.18;;
7529;SDS011;3806;52.270;10.544;2022-08-19T02:23:03;6.63;;;4.18;;
7529;SDS011;3806;52.270;10.544;2022-08-19T02:25:29;11.23;;;4.72;;
7529;SDS011;3806;52.270;10.544;2022-08-19T02:27:55;7.95;;;5.00;;
7529;SDS011;3806;52.270;10.544;2022-08-19T02:30:20;8.02;;;4.70;;
7529;SDS011;3806;52.270;10.544;2022-08-19T02:32:46;8.40;;;4.60;;
7529;SDS011;3806;52.270;10.544;2022-08-19T02:35:13;8.52;;;5.00;;
7529;SDS011;3806;52.270;10.544;2022-08-19T02:37:40;6.80;;;4.60;;
7529;SDS011;3806;52.270;10.544;2022-08-19T02:40:26;7.80;;;4.85;;
7529;SDS011;3806;52.270;10.544;2022-08-19T02:42:52;8.00;;;4.13;;
7529;SDS011;3806;52.270;10.544;2022-08-19T02:45:18;7.38;;;4.35;;
7529;SDS011;3806;52.270;10.544;2022-08-19T02:47:43;11.75;;;4.80;;
7529;SDS011;3806;52.270;10.544;2022-08-19T02:50:09;6.40;;;4.25;;
7529;SDS011;3806;52.270;10.544;2022-08-19T02:52:35;8.40;;;4.03;;
7529;SDS011;3806;52.270;10.544;2022-08-19T02:55:00;7.18;;;4.47;;
7529;SDS011;3806;52.270;10.544;2022-08-19T02:57:26;7.40;;;4.65;;
7529;SDS011;3806;52.270;10.544;2022-08-19T02:59:52;7.53;;;4.65;;
7529;SDS011;3806;52.270;10.544;2022-08-19T03:02:18;6.30;;;3.85;;
7529;SDS011;3806;52.270;10.544;2022-08-19T03:04:44;7.32;;;4.57;;
7529;SDS011;3806;52.270;10.544;2022-08-19T03:07:12;6.95;;;3.92;;
7529;SDS011;3806;52.270;10.544;2022-08-19T03:09:38;7.55;;;4.47;;
7529;SDS011;3806;52.270;10.544;2022-08-19T03:12:04;11.07;;;4.60;;
7529;SDS011;3806;52.270;10.544;2022-08-19T03:14:31;10.88;;;5.05;;
7529;SDS011;3806;52.270;10.544;2022-08-19T03:16:57;7.75;;;4.57;;
7529;SDS011;3806;52.270;10.544;2022-08-19T03:19:23;7.05;;;4.10;;
7529;SDS011;3806;52.270;10.544;2022-08-19T03:21:49;7.47;;;4.75;;
7529;SDS011;3806;52.270;10.544;2022-08-19T03:24:15;6.40;;;4.85;;
7529;SDS011;3806;52.270;10.544;2022-08-19T03:26:43;8.73;;;4.75;;
7529;SDS011;3806;52.270;10.544;2022-08-19T03:29:11;7.90;;;4.55;;
7529;SDS011;3806;52.270;10.544;2022-08-19T03:31:37;6.35;;;4.45;;
7529;SDS011;3806;52.270;10.544;2022-08-19T03:34:04;9.90;;;5.38;;
7529;SDS011;3806;52.270;10.544;2022-08-19T03:36:30;7.97;;;4.78;;
7529;SDS011;3806;52.270;10.544;2022-08-19T03:38:57;6.97;;;4.45;;
7529;SDS011;3806;52.270;10.544;2022-08-19T03:41:26;7.55;;;4.10;;
7529;SDS011;3806;52.270;10.544;2022-08-19T03:43:54;10.90;;;5.45;;
7529;SDS011;3806;52.270;10.544;2022-08-19T03:46:26;7.60;;;4.30;;
7529;SDS011;3806;52.270;10.544;2022-08-19T03:48:54;6.95;;;4.47;;
7529;SDS011;3806;52.270;10.544;2022-08-19T03:51:28;7.93;;;4.45;;
7529;SDS011;3806;52.270;10.544;2022-08-19T03:53:56;6.43;;;4.20;;
7529;SDS011;3806;52.270;10.544;2022-08-19T03:56:23;15.38;;;5.10;;
7529;SDS011;3806;52.270;10.544;2022-08-19T03:58:50;6.25;;;4.50;;
7529;SDS011;3806;52.270;10.544;2022-08-19T04:01:18;7.25;;;4.55;;
7529;SDS011;3806;52.270;10.544;2022-08-19T04:03:45;8.50;;;4.85;;
7529;SDS011;3806;52.270;10.544;2022-08-19T04:06:20;12.15;;;4.60;;
7529;SDS011;3806;52.270;10.544;2022-08-19T04:08:48;7.78;;;4.60;;
7529;SDS011;3806;52.270;10.544;2022-08-19T04:11:16;8.02;;;4.43;;
7529;SDS011;3806;52.270;10.544;2022-08-19T04:13:45;8.88;;;5.00;;
7529;SDS011;3806;52.270;10.544;2022-08-19T04:16:11;10.35;;;4.70;;
7529;SDS011;3806;52.270;10.544;2022-08-19T04:18:37;7.13;;;4.30;;
7529;SDS011;3806;52.270;10.544;2022-08-19T04:21:04;8.77;;;4.65;;
7529;SDS011;3806;52.270;10.544;2022-08-19T04:23:31;6.78;;;4.60;;
7529;SDS011;3806;52.270;10.544;2022-08-19T04:25:57;13.75;;;5.03;;
7529;SDS011;3806;52.270;10.544;2022-08-19T04:28:23;11.18;;;4.40;;
7529;SDS011;3806;52.270;10.544;2022-08-19T04:30:50;6.03;;;4.45;;
7529;SDS011;3806;52.270;10.544;2022-08-19T04:33:19;11.32;;;4.63;;
7529;SDS011;3806;52.270;10.544;2022-08-19T04:35:47;9.93;;;5.07;;
7529;SDS011;3806;52.270;10.544;2022-08-19T04:38:15;8.80;;;4.88;;
7529;SDS011;3806;52.270;10.544;2022-08-19T04:40:43;8.32;;;5.50;;
7529;SDS011;3806;52.270;10.544;2022-08-19T04:43:28;7.30;;;4.43;;
7529;SDS011;3806;52.270;10.544;2022-08-19T04:45:54;7.30;;;5.03;;
7529;SDS011;3806;52.270;10.544;2022-08-19T04:48:20;7.10;;;4.50;;
7529;SDS011;3806;52.270;10.544;2022-08-19T04:50:52;9.77;;;4.50;;
7529;SDS011;3806;52.270;10.544;2022-08-19T04:53:22;7.88;;;4.68;;
7529;SDS011;3806;52.270;10.544;2022-08-19T04:55:49;7.80;;;4.35;;
7529;SDS011;3806;52.270;10.544;2022-08-19T04:58:15;6.57;;;4.72;;
7529;SDS011;3806;52.270;10.544;2022-08-19T05:00:41;9.52;;;4.70;;
7529;SDS011;3806;52.270;10.544;2022-08-19T05:03:07;7.68;;;4.50;;
7529;SDS011;3806;52.270;10.544;2022-08-19T05:05:33;6.07;;;4.53;;
7529;SDS011;3806;52.270;10.544;2022-08-19T05:08:03;8.57;;;4.32;;
7529;SDS011;3806;52.270;10.544;2022-08-19T05:10:28;9.18;;;5.03;;
7529;SDS011;3806;52.270;10.544;2022-08-19T05:12:55;8.68;;;4.82;;
7529;SDS011;3806;52.270;10.544;2022-08-19T05:15:22;6.63;;;4.18;;
7529;SDS011;3806;52.270;10.544;2022-08-19T05:17:47;6.05;;;4.15;;
7529;SDS011;3806;52.270;10.544;2022-08-19T05:20:33;9.70;;;4.78;;
7529;SDS011;3806;52.270;10.544;2022-08-19T05:23:17;7.22;;;4.68;;
7529;SDS011;3806;52.270;10.544;2022-08-19T05:25:43;8.18;;;4.47;;
7529;SDS011;3806;52.270;10.544;2022-08-19T05:28:09;7.82;;;4.15;;
7529;SDS011;3806;52.270;10.544;2022-08-19T05:30:35;6.68;;;4.03;;
7529;SDS011;3806;52.270;10.544;2022-08-19T05:33:00;11.88;;;5.22;;
7529;SDS011;3806;52.270;10.544;2022-08-19T05:35:26;7.28;;;4.43;;
7529;SDS011;3806;52.270;10.544;2022-08-19T05:37:53;9.48;;;4.50;;
7529;SDS011;3806;52.270;10.544;2022-08-19T05:40:19;5.35;;;3.80;;
7529;SDS011;3806;52.270;10.544;2022-08-19T05:42:45;8.82;;;4.38;;
7529;SDS011;3806;52.270;10.544;2022-08-19T05:45:10;6.25;;;3.97;;
7529;SDS011;3806;52.270;10.544;2022-08-19T05:47:36;6.22;;;4.05;;
7529;SDS011;3806;52.270;10.544;2022-08-19T05:50:02;7.80;;;4.07;;
7529;SDS011;3806;52.270;10.544;2022-08-19T05:52:28;6.88;;;3.75;;
7529;SDS011;3806;52.270;10.544;2022-08-19T05:54:55;8.98;;;4.55;;
7529;SDS011;3806;52.270;10.544;2022-08-19T05:57:20;6.80;;;4.65;;
7529;SDS011;3806;52.270;10.544;2022-08-19T05:59:46;7.38;;;4.30;;
7529;SDS011;3806;52.270;10.544;2022-08-19T06:02:13;8.50;;;4.50;;
7529;SDS011;3806;52.270;10.544;2022-08-19T06:04:39;6.85;;;4.45;;
7529;SDS011;3806;52.270;10.544;2022-08-19T06:07:07;7.20;;;4.68;;
7529;SDS011;3806;52.270;10.544;2022-08-19T06:09:33;7.05;;;4.22;;
7529;SDS011;3806;52.270;10.544;2022-08-19T06:12:00;7.65;;;4.30;;
7529;SDS011;3806;52.270;10.544;2022-08-19T06:14:29;6.35;;;4.13;;
7529;SDS011;3806;52.270;10.544;2022-08-19T06:16:56;8.40;;;3.97;;
7529;SDS011;3806;52.270;10.544;2022-08-19T06:19:26;9.07;;;5.32;;
7529;SDS011;3806;52.270;10.544;2022-08-19T06:21:55;7.70;;;3.90;;
7529;SDS011;3806;52.270;10.544;2022-08-19T06:24:23;11.70;;;5.13;;
7529;SDS011;3806;52.270;10.544;2022-08-19T06:26:50;7.20;;;4.03;;
7529;SDS011;3806;52.270;10.544;2022-08-19T06:29:18;10.18;;;4.80;;
7529;SDS011;3806;52.270;10.544;2022-08-19T06:31:49;8.30;;;4.00;;
7529;SDS011;3806;52.270;10.544;2022-08-19T06:34:17;7.75;;;4.28;;
7529;SDS011;3806;52.270;10.544;2022-08-19T06:36:45;7.15;;;3.92;;
7529;SDS011;3806;52.270;10.544;2022-08-19T06:39:17;7.22;;;3.85;;
7529;SDS011;3806;52.270;10.544;2022-08-19T06:41:48;13.60;;;4.50;;
7529;SDS011;3806;52.270;10.544;2022-08-19T06:44:15;7.70;;;4.50;;
7529;SDS011;3806;52.270;10.544;2022-08-19T06:46:41;5.75;;;3.22;;
7529;SDS011;3806;52.270;10.544;2022-08-19T06:49:08;4.63;;;3.00;;
7529;SDS011;3806;52.270;10.544;2022-08-19T06:51:38;6.88;;;3.55;;
7529;SDS011;3806;52.270;10.544;2022-08-19T06:54:05;5.22;;;3.25;;
7529;SDS011;3806;52.270;10.544;2022-08-19T06:56:31;5.95;;;3.50;;
7529;SDS011;3806;52.270;10.544;2022-08-19T06:59:01;5.72;;;3.38;;
7529;SDS011;3806;52.270;10.544;2022-08-19T07:01:28;9.10;;;3.42;;
7529;SDS011;3806;52.270;10.544;2022-08-19T07:03:54;7.75;;;3.40;;
7529;SDS011;3806;52.270;10.544;2022-08-19T07:06:20;6.28;;;3.53;;
7529;SDS011;3806;52.270;10.544;2022-08-19T07:08:46;8.70;;;4.00;;
7529;SDS011;3806;52.270;10.544;2022-08-19T07:11:13;5.80;;;3.55;;
7529;SDS011;3806;52.270;10.544;2022-08-19T07:13:41;4.20;;;3.33;;
7529;SDS011;3806;52.270;10.544;2022-08-19T07:16:09;6.03;;;3.88;;
7529;SDS011;3806;52.270;10.544;2022-08-19T07:18:38;4.03;;;2.85;;
7529;SDS011;3806;52.270;10.544;2022-08-19T07:23:34;6.43;;;3.00;;
7529;SDS011;3806;52.270;10.544;2022-08-19T07:26:13;5.07;;;2.95;;
7529;SDS011;3806;52.270;10.544;2022-08-19T07:28:42;6.90;;;3.30;;
7529;SDS011;3806;52.270;10.544;2022-08-19T07:31:10;8.30;;;3.67;;
7529;SDS011;3806;52.270;10.544;2022-08-19T07:33:38;6.93;;;3.28;;
7529;SDS011;3806;52.270;10.544;2022-08-19T07:36:05;5.93;;;3.05;;
7529;SDS011;3806;52.270;10.544;2022-08-19T07:38:35;6.70;;;3.50;;
7529;SDS011;3806;52.270;10.544;2022-08-19T07:41:00;4.97;;;3.05;;
7529;SDS011;3806;52.270;10.544;2022-08-19T07:43:26;9.90;;;3.85;;
7529;SDS011;3806;52.270;10.544;2022-08-19T07:45:53;6.20;;;3.53;;
7529;SDS011;3806;52.270;10.544;2022-08-19T07:48:30;4.40;;;3.35;;
7529;SDS011;3806;52.270;10.544;2022-08-19T07:51:00;4.28;;;2.80;;
7529;SDS011;3806;52.270;10.544;2022-08-19T07:53:28;4.47;;;3.00;;
7529;SDS011;3806;52.270;10.544;2022-08-19T07:55:55;7.03;;;3.30;;
7529;SDS011;3806;52.270;10.544;2022-08-19T07:58:25;4.85;;;2.60;;
7529;SDS011;3806;52.270;10.544;2022-08-19T08:00:50;3.28;;;2.50;;
7529;SDS011;3806;52.270;10.544;2022-08-19T08:03:17;5.88;;;3.13;;
7529;SDS011;3806;52.270;10.544;2022-08-19T08:05:44;4.00;;;3.13;;
7529;SDS011;3806;52.270;10.544;2022-08-19T08:08:30;5.82;;;3.00;;
7529;SDS011;3806;52.270;10.544;2022-08-19T08:11:02;4.72;;;3.08;;
7529;SDS011;3806;52.270;10.544;2022-08-19T08:13:29;3.80;;;2.75;;
7529;SDS011;3806;52.270;10.544;2022-08-19T08:15:55;4.28;;;2.70;;
7529;SDS011;3806;52.270;10.544;2022-08-19T08:18:22;5.38;;;3.20;;
7529;SDS011;3806;52.270;10.544;2022-08-19T08:20:51;4.35;;;2.90;;
7529;SDS011;3806;52.270;10.544;2022-08-19T08:23:16;4.68;;;2.90;;
7529;SDS011;3806;52.270;10.544;2022-08-19T08:25:49;4.05;;;2.70;;
7529;SDS011;3806;52.270;10.544;2022-08-19T08:28:16;5.75;;;2.80;;
7529;SDS011;3806;52.270;10.544;2022-08-19T08:30:43;4.75;;;2.70;;
7529;SDS011;3806;52.270;10.544;2022-08-19T08:33:10;9.35;;;3.30;;
7529;SDS011;3806;52.270;10.544;2022-08-19T08:35:40;5.15;;;2.67;;
7529;SDS011;3806;52.270;10.544;2022-08-19T08:38:07;5.10;;;2.97;;
7529;SDS011;3806;52.270;10.544;2022-08-19T08:40:43;4.68;;;3.10;;
7529;SDS011;3806;52.270;10.544;2022-08-19T08:43:28;4.97;;;2.58;;
7529;SDS011;3806;52.270;10.544;2022-08-19T08:48:36;4.45;;;2.90;;
7529;SDS011;3806;52.270;10.544;2022-08-19T08:51:17;4.18;;;2.85;;
7529;SDS011;3806;52.270;10.544;2022-08-19T08:54:20;4.28;;;2.58;;
7529;SDS011;3806;52.270;10.544;2022-08-19T08:56:50;6.82;;;3.03;;
7529;SDS011;3806;52.270;10.544;2022-08-19T09:01:49;4.40;;;2.60;;
7529;SDS011;3806;52.270;10.544;2022-08-19T09:04:15;3.97;;;2.58;;
7529;SDS011;3806;52.270;10.544;2022-08-19T09:06:48;5.53;;;2.50;;
7529;SDS011;3806;52.270;10.544;2022-08-19T09:09:34;5.50;;;2.17;;
7529;SDS011;3806;52.270;10.544;2022-08-19T09:12:27;5.32;;;3.10;;
7529;SDS011;3806;52.270;10.544;2022-08-19T09:15:06;3.63;;;2.33;;
7529;SDS011;3806;52.270;10.544;2022-08-19T09:17:34;5.38;;;2.42;;
7529;SDS011;3806;52.270;10.544;2022-08-19T09:20:05;2.97;;;2.40;;
7529;SDS011;3806;52.270;10.544;2022-08-19T09:22:41;6.30;;;3.38;;
7529;SDS011;3806;52.270;10.544;2022-08-19T09:25:13;5.18;;;2.67;;
7529;SDS011;3806;52.270;10.544;2022-08-19T09:27:42;4.55;;;2.47;;
7529;SDS011;3806;52.270;10.544;2022-08-19T09:30:09;3.72;;;2.65;;
7529;SDS011;3806;52.270;10.544;2022-08-19T09:32:46;4.07;;;2.80;;
7529;SDS011;3806;52.270;10.544;2022-08-19T09:35:12;5.10;;;2.97;;
7529;SDS011;3806;52.270;10.544;2022-08-19T09:37:39;3.17;;;2.50;;
7529;SDS011;3806;52.270;10.544;2022-08-19T09:40:05;4.07;;;2.45;;
7529;SDS011;3806;52.270;10.544;2022-08-19T09:42:32;5.10;;;2.83;;
7529;SDS011;3806;52.270;10.544;2022-08-19T09:44:58;8.65;;;3.25;;
7529;SDS011;3806;52.270;10.544;2022-08-19T09:47:24;4.57;;;3.15;;
7529;SDS011;3806;52.270;10.544;2022-08-19T09:49:50;5.65;;;3.78;;
7529;SDS011;3806;52.270;10.544;2022-08-19T09:52:15;5.93;;;3.35;;
7529;SDS011;3806;52.270;10.544;2022-08-19T09:54:43;5.70;;;3.20;;
7529;SDS011;3806;52.270;10.544;2022-08-19T09:57:08;4.75;;;3.13;;
7529;SDS011;3806;52.270;10.544;2022-08-19T09:59:34;4.43;;;3.47;;
7529;SDS011;3806;52.270;10.544;2022-08-19T10:01:59;4.30;;;3.22;;
7529;SDS011;3806;52.270;10.544;2022-08-19T10:04:26;6.25;;;3.97;;
7529;SDS011;3806;52.270;10.544;2022-08-19T10:07:11;6.97;;;3.55;;
7529;SDS011;3806;52.270;10.544;2022-08-19T10:09:37;5.82;;;2.90;;
7529;SDS011;3806;52.270;10.544;2022-08-19T10:12:04;6.40;;;3.55;;
7529;SDS011;3806;52.270;10.544;2022-08-19T10:14:30;4.72;;;3.55;;
7529;SDS011;3806;52.270;10.544;2022-08-19T10:16:56;9.82;;;3.67;;
7529;SDS011;3806;52.270;10.544;2022-08-19T10:19:22;6.43;;;3.88;;
7529;SDS011;3806;52.270;10.544;2022-08-19T10:21:47;6.00;;;3.72;;
7529;SDS011;3806;52.270;10.544;2022-08-19T10:24:13;7.57;;;4.00;;
7529;SDS011;3806;52.270;10.544;2022-08-19T10:26:39;5.50;;;3.80;;
7529;SDS011;3806;52.270;10.544;2022-08-19T10:29:12;6.70;;;3.42;;
7529;SDS011;3806;52.270;10.544;2022-08-19T10:31:40;5.50;;;3.35;;
7529;SDS011;3806;52.270;10.544;2022-08-19T10:34:06;5.85;;;4.07;;
7529;SDS011;3806;52.270;10.544;2022-08-19T10:36:33;4.35;;;3.10;;
7529;SDS011;3806;52.270;10.544;2022-08-19T10:39:02;6.53;;;3.50;;
7529;SDS011;3806;52.270;10.544;2022-08-19T10:41:31;4.40;;;3.38;;
7529;SDS011;3806;52.270;10.544;2022-08-19T10:44:00;5.60;;;3.83;;
7529;SDS011;3806;52.270;10.544;2022-08-19T10:46:27;5.88;;;3.22;;
7529;SDS011;3806;52.270;10.544;2022-08-19T10:48:57;6.05;;;3.40;;
7529;SDS011;3806;52.270;10.544;2022-08-19T10:51:23;3.60;;;3.03;;
7529;SDS011;3806;52.270;10.544;2022-08-19T10:54:08;4.43;;;3.10;;
7529;SDS011;3806;52.270;10.544;2022-08-19T10:56:35;6.28;;;3.67;;
7529;SDS011;3806;52.270;10.544;2022-08-19T10:59:16;8.38;;;3.08;;
7529;SDS011;3806;52.270;10.544;2022-08-19T11:01:54;4.57;;;3.13;;
7529;SDS011;3806;52.270;10.544;2022-08-19T11:04:25;5.85;;;2.83;;
7529;SDS011;3806;52.270;10.544;2022-08-19T11:06:51;7.20;;;3.10;;
7529;SDS011;3806;52.270;10.544;2022-08-19T11:09:18;4.70;;;2.92;;
7529;SDS011;3806;52.270;10.544;2022-08-19T11:11:51;6.47;;;3.17;;
7529;SDS011;3806;52.270;10.544;2022-08-19T11:14:18;3.60;;;2.55;;
7529;SDS011;3806;52.270;10.544;2022-08-19T11:16:45;4.47;;;3.00;;
7529;SDS011;3806;52.270;10.544;2022-08-19T11:19:12;6.93;;;2.88;;
7529;SDS011;3806;52.270;10.544;2022-08-19T11:21:40;3.40;;;2.53;;
7529;SDS011;3806;52.270;10.544;2022-08-19T11:24:08;6.18;;;3.88;;
7529;SDS011;3806;52.270;10.544;2022-08-19T11:26:37;6.00;;;3.40;;
7529;SDS011;3806;52.270;10.544;2022-08-19T11:29:04;5.45;;;3.75;;
7529;SDS011;3806;52.270;10.544;2022-08-19T11:31:32;4.32;;;2.88;;
7529;SDS011;3806;52.270;10.544;2022-08-19T11:34:01;7.15;;;3.80;;
7529;SDS011;3806;52.270;10.544;2022-08-19T11:36:28;4.95;;;3.42;;
7529;SDS011;3806;52.270;10.544;2022-08-19T11:38:56;4.93;;;3.88;;
7529;SDS011;3806;52.270;10.544;2022-08-19T11:41:22;8.50;;;3.70;;
7529;SDS011;3806;52.270;10.544;2022-08-19T11:43:49;5.57;;;3.22;;
7529;SDS011;3806;52.270;10.544;2022-08-19T11:46:17;6.88;;;3.65;;
7529;SDS011;3806;52.270;10.544;2022-08-19T11:48:44;5.40;;;3.50;;
7529;SDS011;3806;52.270;10.544;2022-08-19T11:51:13;4.18;;;2.80;;
7529;SDS011;3806;52.270;10.544;2022-08-19T11:53:43;8.38;;;3.00;;
7529;SDS011;3806;52.270;10.544;2022-08-19T11:56:09;4.13;;;2.83;;
7529;SDS011;3806;52.270;10.544;2022-08-19T11:58:35;6.82;;;3.00;;
7529;SDS011;3806;52.270;10.544;2022-08-19T12:01:01;3.92;;;2.80;;
7529;SDS011;3806;52.270;10.544;2022-08-19T12:03:31;5.45;;;3.03;;
7529;SDS011;3806;52.270;10.544;2022-08-19T12:05:57;5.03;;;3.10;;
7529;SDS011;3806;52.270;10.544;2022-08-19T12:08:22;5.35;;;3.40;;
7529;SDS011;3806;52.270;10.544;2022-08-19T12:10:48;4.43;;;2.92;;
7529;SDS011;3806;52.270;10.544;2022-08-19T12:13:14;4.65;;;2.90;;
7529;SDS011;3806;52.270;10.544;2022-08-19T12:15:43;4.50;;;2.65;;
7529;SDS011;3806;52.270;10.544;2022-08-19T12:18:10;4.45;;;3.30;;
7529;SDS011;3806;52.270;10.544;2022-08-19T12:20:37;3.38;;;2.65;;
7529;SDS011;3806;52.270;10.544;2022-08-19T12:23:05;3.92;;;2.72;;
7529;SDS011;3806;52.270;10.544;2022-08-19T12:25:32;3.78;;;2.20;;
7529;SDS011;3806;52.270;10.544;2022-08-19T12:27:58;4.85;;;2.65;;
7529;SDS011;3806;52.270;10.544;2022-08-19T12:30:23;9.73;;;3.40;;
7529;SDS011;3806;52.270;10.544;2022-08-19T12:32:50;4.47;;;2.47;;
7529;SDS011;3806;52.270;10.544;2022-08-19T12:35:16;3.17;;;2.22;;
7529;SDS011;3806;52.270;10.544;2022-08-19T12:37:45;4.32;;;2.60;;
7529;SDS011;3806;52.270;10.544;2022-08-19T12:40:12;5.47;;;2.33;;
7529;SDS011;3806;52.270;10.544;2022-08-19T12:42:39;3.22;;;2.75;;
7529;SDS011;3806;52.270;10.544;2022-08-19T12:45:08;4.35;;;2.05;;
7529;SDS011;3806;52.270;10.544;2022-08-19T12:47:35;2.53;;;2.28;;
7529;SDS011;3806;52.270;10.544;2022-08-19T12:50:01;5.55;;;3.40;;
7529;SDS011;3806;52.270;10.544;2022-08-19T12:52:26;4.20;;;2.72;;
7529;SDS011;3806;52.270;10.544;2022-08-19T12:54:53;3.60;;;3.15;;
7529;SDS011;3806;52.270;10.544;2022-08-19T12:57:20;2.70;;;2.25;;
7529;SDS011;3806;52.270;10.544;2022-08-19T12:59:48;3.83;;;2.45;;
7529;SDS011;3806;52.270;10.544;2022-08-19T13:02:18;4.65;;;2.70;;
7529;SDS011;3806;52.270;10.544;2022-08-19T13:04:44;3.33;;;2.17;;
7529;SDS011;3806;52.270;10.544;2022-08-19T13:07:10;2.95;;;2.45;;
7529;SDS011;3806;52.270;10.544;2022-08-19T13:09:36;3.08;;;2.42;;
7529;SDS011;3806;52.270;10.544;2022-08-19T13:12:02;4.78;;;2.63;;
7529;SDS011;3806;52.270;10.544;2022-08-19T13:14:32;2.92;;;2.33;;
7529;SDS011;3806;52.270;10.544;2022-08-19T13:16:58;4.68;;;2.58;;
7529;SDS011;3806;52.270;10.544;2022-08-19T13:19:24;4.85;;;2.58;;
7529;SDS011;3806;52.270;10.544;2022-08-19T13:21:50;3.45;;;2.67;;
7529;SDS011;3806;52.270;10.544;2022-08-19T13:24:16;6.38;;;2.67;;
7529;SDS011;3806;52.270;10.544;2022-08-19T13:26:42;3.70;;;2.83;;
7529;SDS011;3806;52.270;10.544;2022-08-19T13:29:08;3.50;;;2.35;;
7529;SDS011;3806;52.270;10.544;2022-08-19T13:31:52;4.47;;;2.33;;
7529;SDS011;3806;52.270;10.544;2022-08-19T13:34:36;4.18;;;2.53;;
7529;SDS011;3806;52.270;10.544;2022-08-19T13:37:02;2.88;;;2.55;;
7529;SDS011;3806;52.270;10.544;2022-08-19T13:39:29;6.28;;;3.00;;
7529;SDS011;3806;52.270;10.544;2022-08-19T13:42:00;6.13;;;3.72;;
7529;SDS011;3806;52.270;10.544;2022-08-19T13:44:27;2.65;;;2.30;;
7529;SDS011;3806;52.270;10.544;2022-08-19T13:47:00;2.88;;;2.47;;
7529;SDS011;3806;52.270;10.544;2022-08-19T13:49:30;3.85;;;2.63;;
7529;SDS011;3806;52.270;10.544;2022-08-19T13:51:56;3.20;;;2.45;;
7529;SDS011;3806;52.270;10.544;2022-08-19T13:54:22;2.83;;;2.08;;
7529;SDS011;3806;52.270;10.544;2022-08-19T13:56:48;5.22;;;2.30;;
7529;SDS011;3806;52.270;10.544;2022-08-19T13:59:13;3.80;;;2.63;;
7529;SDS011;3806;52.270;10.544;2022-08-19T14:01:40;2.78;;;2.42;;
7529;SDS011;3806;52.270;10.544;2022-08-19T14:04:06;3.22;;;2.60;;
7529;SDS011;3806;52.270;10.544;2022-08-19T14:06:32;3.03;;;2.50;;
7529;SDS011;3806;52.270;10.544;2022-08-19T14:08:58;7.07;;;3.33;;
7529;SDS011;3806;52.270;10.544;2022-08-19T14:11:24;3.22;;;2.72;;
7529;SDS011;3806;52.270;10.544;2022-08-19T14:13:50;3.97;;;2.53;;
7529;SDS011;3806;52.270;10.544;2022-08-19T14:16:16;4.35;;;2.90;;
7529;SDS011;3806;52.270;10.544;2022-08-19T14:18:41;3.30;;;2.35;;
7529;SDS011;3806;52.270;10.544;2022-08-19T14:21:08;2.90;;;2.47;;
7529;SDS011;3806;52.270;10.544;2022-08-19T14:23:40;3.70;;;2.78;;
7529;SDS011;3806;52.270;10.544;2022-08-19T14:26:07;5.32;;;2.47;;
7529;SDS011;3806;52.270;10.544;2022-08-19T14:28:34;7.65;;;2.88;;
7529;SDS011;3806;52.270;10.544;2022-08-19T14:31:00;3.72;;;2.55;;
7529;SDS011;3806;52.270;10.544;2022-08-19T14:33:26;3.97;;;2.65;;
7529;SDS011;3806;52.270;10.544;2022-08-19T14:35:51;3.25;;;2.33;;
7529;SDS011;3806;52.270;10.544;2022-08-19T14:38:17;3.33;;;2.70;;
7529;SDS011;3806;52.270;10.544;2022-08-19T14:40:44;4.93;;;3.08;;
7529;SDS011;3806;52.270;10.544;2022-08-19T14:43:10;4.78;;;2.47;;
7529;SDS011;3806;52.270;10.544;2022-08-19T14:45:37;3.20;;;2.83;;
7529;SDS011;3806;52.270;10.544;2022-08-19T14:48:04;6.10;;;2.92;;
7529;SDS011;3806;52.270;10.544;2022-08-19T14:50:30;4.18;;;2.60;;
7529;SDS011;3806;52.270;10.544;2022-08-19T14:52:58;3.22;;;2.55;;
7529;SDS011;3806;52.270;10.544;2022-08-19T14:55:25;3.67;;;2.55;;
7529;SDS011;3806;52.270;10.544;2022-08-19T14:57:50;3.20;;;2.70;;
7529;SDS011;3806;52.270;10.544;2022-08-19T15:00:16;6.57;;;3.15;;
7529;SDS011;3806;52.270;10.544;2022-08-19T15:02:42;5.82;;;2.63;;
7529;SDS011;3806;52.270;10.544;2022-08-19T15:05:11;5.40;;;3.20;;
7529;SDS011;3806;52.270;10.544;2022-08-19T15:07:37;3.85;;;2.50;;
7529;SDS011;3806;52.270;10.544;2022-08-19T15:10:05;3.50;;;2.97;;
7529;SDS011;3806;52.270;10.544;2022-08-19T15:12:33;3.67;;;2.92;;
7529;SDS011;3806;52.270;10.544;2022-08-19T15:15:00;4.35;;;2.70;;
7529;SDS011;3806;52.270;10.544;2022-08-19T15:17:26;4.70;;;2.75;;